Etusivu
METAR-TAF:

METAR-TAF

Lentoasemat :

Whale Coven lentoasema

Whale Cove, Nunavut, Kanada

Leveyspiiri: 62-14N, Pituuspiiri: 092-36W, korkeus merenpinnasta: 20 m

Tämänhetkinen sää

Tämä raportti tehtiin 47 minuuttia sitten, kello 19.00 UTC
Tuuli 12 kn idästä/koillisesta
Lämpötila -10°C
Kosteus 92%
Ilmanpaine 1017 hPa
Näkyvyys: 24.1 km
Hajonneita pilviä 800 ft:n korkeudessa
heikkoa lumisadetta

METAR: CYXN 081900Z 06012KT 15SM -SN BKN008 M10/M11 A3004 RMK ST5 CIG VRB 7-9 SLP175

Aika: 14:47 (19:47 UTC)


TAF: puuttuu

Säähavainnot ja -ennusteet yli 4000 lentoasemalta (METAR- ja TAF-raportit).

Käytössä olevat sääasemat on merkitty karttaan keltaisilla ja punaisilla pisteillä.

Aseta hiiri pisteen päälle nähdäksesi sääaseman nimen.

Klikkaa sitten nähdäksesi säähavainnot ja -ennusteet.

Kartan vaihtaminen: klikkaa mustalla rastilla varustettuja vihreitä pisteitä, niin voit zoomata sisään; viivalla varustettua vihreää pistettä, niin voit zoomata ulos tai vihreitä nuolia, niin pääset viereisille kartoille.


METAR-TAF: